createdAt,value
2023-11-07T00:01:29.121Z,93632.38
2023-11-07T00:04:01.468Z,93636.03
2023-11-07T00:06:27.953Z,93629.78
2023-11-07T00:08:54.432Z,93634.19
2023-11-07T00:11:20.883Z,93635.53
2023-11-07T00:13:52.369Z,93629.34
2023-11-07T00:16:18.848Z,93630.28
2023-11-07T00:18:46.502Z,93628.81
2023-11-07T00:21:13.045Z,93612.63
2023-11-07T00:23:43.554Z,93614.63
2023-11-07T00:26:09.927Z,93630.00
2023-11-07T00:28:37.899Z,93620.59
2023-11-07T00:31:04.405Z,93621.94
2023-11-07T00:33:30.941Z,93619.00
2023-11-07T00:35:57.446Z,93621.94
2023-11-07T00:38:23.829Z,93622.47
2023-11-07T00:40:50.405Z,93620.25
2023-11-07T00:43:16.897Z,93619.44
2023-11-07T00:45:43.244Z,93616.25
2023-11-07T00:48:09.764Z,93625.16
2023-11-07T00:50:36.589Z,93637.53
2023-11-07T00:53:03.182Z,93632.16
2023-11-07T00:55:41.972Z,93633.41
2023-11-07T00:58:08.324Z,93636.28
2023-11-07T01:00:34.889Z,93634.31
2023-11-07T01:03:01.411Z,93642.72
2023-11-07T01:05:28.264Z,93640.75
2023-11-07T01:07:54.913Z,93641.47
2023-11-07T01:10:21.324Z,93650.94
2023-11-07T01:12:47.797Z,93641.25
2023-11-07T01:15:14.208Z,93644.59
2023-11-07T01:17:40.795Z,93642.88
2023-11-07T01:20:07.823Z,93633.38
2023-11-07T01:22:34.304Z,93638.91
2023-11-07T01:25:00.680Z,93624.69
2023-11-07T01:27:27.146Z,93627.69
2023-11-07T01:29:53.526Z,93626.16
2023-11-07T01:32:20.852Z,93623.00
2023-11-07T01:34:47.227Z,93626.72
2023-11-07T01:37:13.615Z,93618.03
2023-11-07T01:39:40.051Z,93616.59
2023-11-07T01:42:09.605Z,93609.78
2023-11-07T01:44:36.047Z,93603.00
2023-11-07T01:47:03.903Z,93605.88
2023-11-07T01:49:30.419Z,93607.19
2023-11-07T01:51:58.867Z,93606.06
2023-11-07T01:54:27.065Z,93605.53
2023-11-07T01:56:58.132Z,93613.59
2023-11-07T01:59:25.142Z,93615.03
2023-11-07T02:01:53.364Z,93612.56
2023-11-07T02:04:20.842Z,93614.50
2023-11-07T02:06:47.264Z,93618.00
2023-11-07T02:09:13.703Z,93613.22
2023-11-07T02:11:40.231Z,93622.00
2023-11-07T02:14:06.990Z,93614.97
2023-11-07T02:16:33.401Z,93624.09
2023-11-07T02:18:59.889Z,93622.34
2023-11-07T02:21:30.650Z,93632.38
2023-11-07T02:23:57.111Z,93623.84
2023-11-07T02:26:25.611Z,93627.19
2023-11-07T02:28:52.039Z,93614.28
2023-11-07T02:31:18.791Z,93618.81
2023-11-07T02:33:47.459Z,93616.22
2023-11-07T02:36:13.879Z,93613.72
2023-11-07T02:38:40.249Z,93620.47
2023-11-07T02:41:06.768Z,93614.59
2023-11-07T02:43:33.797Z,93612.84
2023-11-07T02:46:00.153Z,93602.47
2023-11-07T02:48:26.594Z,93608.28
2023-11-07T02:50:53.758Z,93601.19
2023-11-07T02:53:20.198Z,93611.06
2023-11-07T02:55:47.404Z,93610.28
2023-11-07T02:58:15.030Z,93618.03
2023-11-07T03:00:45.925Z,93617.41
2023-11-07T03:03:12.424Z,93615.47
2023-11-07T03:05:44.903Z,93624.81
2023-11-07T03:08:26.757Z,93620.31
2023-11-07T03:10:53.314Z,93619.44
2023-11-07T03:13:21.252Z,93615.03
2023-11-07T03:15:48.498Z,93620.19
2023-11-07T03:18:15.054Z,93623.69
2023-11-07T03:20:41.895Z,93622.00
2023-11-07T03:23:12.478Z,93608.59
2023-11-07T03:25:38.819Z,93623.75
2023-11-07T03:28:05.548Z,93613.66
2023-11-07T03:30:31.951Z,93621.16
2023-11-07T03:32:58.809Z,93616.13
2023-11-07T03:35:29.188Z,93616.25
2023-11-07T03:37:57.700Z,93616.59
2023-11-07T03:40:24.056Z,93613.38
2023-11-07T03:42:50.422Z,93608.66
2023-11-07T03:45:16.825Z,93615.44
2023-11-07T03:48:00.532Z,93609.16
2023-11-07T03:50:27.126Z,93608.88
2023-11-07T03:52:53.532Z,93606.00
2023-11-07T03:55:19.863Z,93615.09
2023-11-07T03:57:46.286Z,93610.00
2023-11-07T04:00:12.844Z,93619.34
2023-11-07T04:02:39.373Z,93618.41
2023-11-07T04:05:06.070Z,93622.69
2023-11-07T04:07:32.786Z,93615.53
2023-11-07T04:10:00.241Z,93621.06
2023-11-07T04:12:26.661Z,93621.38
2023-11-07T04:14:55.719Z,93618.22
2023-11-07T04:17:22.810Z,93625.41
2023-11-07T04:19:49.293Z,93631.59
2023-11-07T04:22:16.791Z,93627.06
2023-11-07T04:24:45.057Z,93630.03
2023-11-07T04:27:11.700Z,93630.34
2023-11-07T04:29:38.235Z,93636.03
2023-11-07T04:32:05.938Z,93637.50
2023-11-07T04:34:32.661Z,93640.03
2023-11-07T04:36:59.882Z,93646.50
2023-11-07T04:39:27.298Z,93637.75
2023-11-07T04:41:54.523Z,93633.53
2023-11-07T04:44:21.301Z,93628.69
2023-11-07T04:46:48.382Z,93642.56
2023-11-07T04:49:15.369Z,93636.94
2023-11-07T04:51:41.888Z,93633.72
2023-11-07T04:54:08.382Z,93640.50
2023-11-07T04:56:34.786Z,93641.78
2023-11-07T04:59:01.313Z,93639.75
2023-11-07T05:01:27.689Z,93639.41
2023-11-07T05:03:54.981Z,93638.69
2023-11-07T05:06:21.680Z,93640.19
2023-11-07T05:08:48.314Z,93632.25
2023-11-07T05:11:14.747Z,93639.97
2023-11-07T05:13:41.095Z,93636.75
2023-11-07T05:16:07.647Z,93640.88
2023-11-07T05:18:34.215Z,93650.44
2023-11-07T05:21:01.759Z,93648.03
2023-11-07T05:23:28.139Z,93644.81
2023-11-07T05:25:55.531Z,93650.00
2023-11-07T05:28:22.013Z,93645.09
2023-11-07T05:30:48.388Z,93644.13
2023-11-07T05:33:17.047Z,93647.00
2023-11-07T05:35:45.363Z,93646.00
2023-11-07T05:38:12.144Z,93650.22
2023-11-07T05:40:38.513Z,93656.38
2023-11-07T05:43:04.866Z,93655.06
2023-11-07T05:45:32.102Z,93649.88
2023-11-07T05:47:58.747Z,93652.47
2023-11-07T05:50:26.858Z,93658.28
2023-11-07T05:52:53.730Z,93656.69
2023-11-07T05:55:20.178Z,93658.94
2023-11-07T05:57:46.589Z,93652.41
2023-11-07T06:00:13.783Z,93648.84
2023-11-07T06:02:40.796Z,93646.88
2023-11-07T06:05:10.627Z,93648.50
2023-11-07T06:07:37.096Z,93656.09
2023-11-07T06:10:04.359Z,93661.41
2023-11-07T06:12:30.775Z,93659.44
2023-11-07T06:14:57.153Z,93652.63
2023-11-07T06:17:23.590Z,93672.69
2023-11-07T06:19:50.266Z,93663.25
2023-11-07T06:22:16.881Z,93665.69
2023-11-07T06:24:47.547Z,93666.38
2023-11-07T06:27:14.051Z,93664.13
2023-11-07T06:29:49.171Z,93666.81
2023-11-07T06:32:15.952Z,93586.19
2023-11-07T06:34:42.515Z,93671.28
2023-11-07T06:37:09.124Z,93678.78
2023-11-07T06:39:36.249Z,93669.13
2023-11-07T06:42:02.765Z,93676.25
2023-11-07T06:44:29.347Z,93683.41
2023-11-07T06:46:56.508Z,93674.72
2023-11-07T06:49:23.201Z,93692.25
2023-11-07T06:51:49.657Z,93686.50
2023-11-07T06:54:17.173Z,93685.59
2023-11-07T06:56:43.599Z,93700.66
2023-11-07T06:59:10.813Z,93696.31
2023-11-07T07:01:37.562Z,93700.53
2023-11-07T07:04:04.516Z,93694.09
2023-11-07T07:06:33.197Z,93703.44
2023-11-07T07:09:09.443Z,93699.84
2023-11-07T07:11:41.270Z,93693.09
2023-11-07T07:14:07.636Z,93699.53
2023-11-07T07:16:34.036Z,93688.81
2023-11-07T07:19:00.546Z,93696.06
2023-11-07T07:21:27.014Z,93687.78
2023-11-07T07:23:53.714Z,93689.84
2023-11-07T07:26:23.340Z,93683.19
2023-11-07T07:28:53.548Z,93688.31
2023-11-07T07:31:28.601Z,93692.63
2023-11-07T07:33:57.615Z,93695.94
2023-11-07T07:36:24.236Z,93701.06
2023-11-07T07:38:53.584Z,93699.75
2023-11-07T07:41:20.006Z,93697.78
2023-11-07T07:43:47.588Z,93692.81
2023-11-07T07:46:14.133Z,93699.47
2023-11-07T07:48:40.592Z,93703.59
2023-11-07T07:51:07.750Z,93691.25
2023-11-07T07:53:35.505Z,93699.66
2023-11-07T07:56:02.064Z,93689.44
2023-11-07T07:58:28.464Z,93692.50
2023-11-07T08:00:54.823Z,93694.63
2023-11-07T08:03:21.891Z,93687.00
2023-11-07T08:05:48.678Z,93688.22
2023-11-07T08:08:16.153Z,93682.81
2023-11-07T08:10:42.559Z,93689.41
2023-11-07T08:13:11.305Z,93694.47
2023-11-07T08:15:38.061Z,93694.75
2023-11-07T08:18:08.671Z,93696.41
2023-11-07T08:20:36.128Z,93707.53
2023-11-07T08:23:05.925Z,93709.50
2023-11-07T08:25:33.422Z,93709.88
2023-11-07T08:27:59.828Z,93709.56
2023-11-07T08:30:26.239Z,93712.78
2023-11-07T08:32:53.237Z,93708.44
2023-11-07T08:35:20.100Z,93705.53
2023-11-07T08:37:51.195Z,93703.41
2023-11-07T08:40:19.972Z,93706.81
2023-11-07T08:42:46.693Z,93706.44
2023-11-07T08:45:16.821Z,93714.50
2023-11-07T08:47:44.808Z,93710.88
2023-11-07T08:50:14.438Z,93712.06
2023-11-07T08:52:41.544Z,93715.28
2023-11-07T08:55:09.561Z,93714.91
2023-11-07T08:57:40.073Z,93720.34
2023-11-07T09:00:13.488Z,93723.09
2023-11-07T09:02:40.619Z,93716.78
2023-11-07T09:05:07.949Z,93710.56
2023-11-07T09:07:38.948Z,93715.03
2023-11-07T09:10:06.092Z,93707.00
2023-11-07T09:12:32.500Z,93710.69
2023-11-07T09:15:00.397Z,93707.09
2023-11-07T09:17:28.302Z,93714.91
2023-11-07T09:19:55.557Z,93703.50
2023-11-07T09:22:23.790Z,93704.78
2023-11-07T09:24:50.727Z,93708.34
2023-11-07T09:27:18.106Z,93709.69
2023-11-07T09:29:45.218Z,93709.28
2023-11-07T09:32:11.684Z,93704.59
2023-11-07T09:34:42.398Z,93710.56
2023-11-07T09:37:08.922Z,93711.28
2023-11-07T09:39:35.636Z,93703.25
2023-11-07T09:42:02.472Z,93708.81
2023-11-07T09:44:29.004Z,93709.66
2023-11-07T09:46:56.938Z,93709.38
2023-11-07T09:49:23.850Z,93709.50
2023-11-07T09:51:51.481Z,93711.44
2023-11-07T09:54:20.610Z,93709.78
2023-11-07T09:56:48.282Z,93705.94
2023-11-07T09:59:16.505Z,93708.53
2023-11-07T10:01:44.183Z,93706.69
2023-11-07T10:04:10.840Z,93702.88
2023-11-07T10:06:37.997Z,93704.38
2023-11-07T10:09:05.717Z,93709.66
2023-11-07T10:11:44.152Z,93708.69
2023-11-07T10:14:10.500Z,93708.13
2023-11-07T10:16:37.568Z,93708.59
2023-11-07T10:19:06.077Z,93712.28
2023-11-07T10:21:33.292Z,93707.03
2023-11-07T10:24:00.133Z,93711.78
2023-11-07T10:26:26.530Z,93695.59
2023-11-07T10:29:18.019Z,93701.25
2023-11-07T10:31:58.071Z,93699.56
2023-11-07T10:34:26.863Z,93700.44
2023-11-07T10:36:53.594Z,93714.09
2023-11-07T10:39:22.889Z,93704.41
2023-11-07T10:41:49.369Z,93698.59
2023-11-07T10:44:16.454Z,93694.41
2023-11-07T10:46:44.475Z,93692.00
2023-11-07T10:49:12.602Z,93697.59
2023-11-07T10:51:38.993Z,93687.78
2023-11-07T10:54:06.100Z,93688.72
2023-11-07T10:56:33.620Z,93693.13
2023-11-07T10:59:01.182Z,93681.06
2023-11-07T11:01:33.316Z,93683.50
2023-11-07T11:04:01.169Z,93676.09
2023-11-07T11:06:28.912Z,93685.16
2023-11-07T11:08:57.154Z,93685.22
2023-11-07T11:11:26.490Z,93688.44
2023-11-07T11:13:53.890Z,93682.06
2023-11-07T11:16:21.457Z,93678.06
2023-11-07T11:18:57.388Z,93680.47
2023-11-07T11:21:29.041Z,93668.13
2023-11-07T11:24:15.746Z,93675.03
2023-11-07T11:26:50.715Z,93672.28
2023-11-07T11:29:29.955Z,93674.75
2023-11-07T11:31:57.712Z,93676.75
2023-11-07T11:34:29.473Z,93673.16
2023-11-07T11:36:59.487Z,93669.16
2023-11-07T11:39:28.655Z,93670.75
2023-11-07T11:41:58.901Z,93671.16
2023-11-07T11:44:25.932Z,93674.69
2023-11-07T11:46:58.403Z,93668.47
2023-11-07T11:49:24.946Z,93668.28
2023-11-07T11:51:55.395Z,93664.91
2023-11-07T11:54:26.960Z,93666.31
2023-11-07T11:56:54.766Z,93669.53
2023-11-07T11:59:41.143Z,93663.50
2023-11-07T12:02:08.320Z,93657.28
2023-11-07T12:04:38.424Z,93657.44
2023-11-07T12:07:08.792Z,93649.69
2023-11-07T12:09:36.064Z,93652.50
2023-11-07T12:12:03.694Z,93656.06
2023-11-07T12:14:30.128Z,93651.03
2023-11-07T12:16:57.038Z,93654.69
2023-11-07T12:19:23.901Z,93661.13
2023-11-07T12:21:54.150Z,93660.72
2023-11-07T12:24:21.376Z,93664.69
2023-11-07T12:26:48.901Z,93656.66
2023-11-07T12:29:15.770Z,93653.88
2023-11-07T12:31:42.226Z,93662.72
2023-11-07T12:34:08.827Z,93654.25
2023-11-07T12:36:36.818Z,93647.78
2023-11-07T12:39:04.917Z,93660.28
2023-11-07T12:41:34.303Z,93649.03
2023-11-07T12:44:10.995Z,93654.25
2023-11-07T12:46:39.867Z,93655.81
2023-11-07T12:49:06.311Z,93650.63
2023-11-07T12:51:36.864Z,93651.44
2023-11-07T12:54:05.304Z,93656.63
2023-11-07T12:56:40.691Z,93651.41
2023-11-07T12:59:13.912Z,93654.59
2023-11-07T13:01:47.246Z,93648.13
2023-11-07T13:04:15.050Z,93646.97
2023-11-07T13:07:13.950Z,93644.16
2023-11-07T13:09:40.408Z,93640.91
2023-11-07T13:12:08.107Z,93647.75
2023-11-07T13:14:34.804Z,93651.41
2023-11-07T13:17:04.834Z,93640.06
2023-11-07T13:19:36.039Z,93639.25
2023-11-07T13:22:02.841Z,93635.25
2023-11-07T13:24:29.251Z,93637.09
2023-11-07T13:26:55.671Z,93637.91
2023-11-07T13:29:22.354Z,93627.09
2023-11-07T13:31:50.329Z,93629.88
2023-11-07T13:34:18.183Z,93630.13
2023-11-07T13:36:44.998Z,93637.75
2023-11-07T13:39:24.222Z,93638.16
2023-11-07T13:41:50.948Z,93631.78
2023-11-07T13:44:17.357Z,93626.97
2023-11-07T13:46:43.861Z,93620.56
2023-11-07T13:49:10.611Z,93616.31
2023-11-07T13:51:39.870Z,93616.09
2023-11-07T13:54:09.315Z,93625.97
2023-11-07T13:56:35.876Z,93618.06
2023-11-07T13:59:09.529Z,93618.53
2023-11-07T14:01:38.377Z,93630.97
2023-11-07T14:04:06.415Z,93627.78
2023-11-07T14:06:33.533Z,93631.78
2023-11-07T14:09:00.142Z,93636.19
2023-11-07T14:11:26.619Z,93629.97
2023-11-07T14:13:53.049Z,93630.19
2023-11-07T14:16:19.789Z,93637.00
2023-11-07T14:18:49.846Z,93642.66
2023-11-07T14:21:19.869Z,93633.22
2023-11-07T14:23:47.697Z,93553.09
2023-11-07T14:26:14.756Z,93640.63
2023-11-07T14:28:54.719Z,93635.00
2023-11-07T14:31:30.928Z,93639.81
2023-11-07T14:33:59.548Z,93645.81
2023-11-07T14:36:27.907Z,93645.03
2023-11-07T14:38:56.400Z,93634.13
2023-11-07T14:41:28.279Z,93645.78
2023-11-07T14:43:54.694Z,93645.56
2023-11-07T14:46:31.327Z,93651.78
2023-11-07T14:48:57.994Z,93647.69
2023-11-07T14:51:28.624Z,93650.09
2023-11-07T14:53:58.038Z,93648.47
2023-11-07T14:56:30.668Z,93656.44
2023-11-07T14:59:00.904Z,93652.91
2023-11-07T15:01:27.950Z,93654.84
2023-11-07T15:03:57.640Z,93657.00
2023-11-07T15:06:24.168Z,93663.06
2023-11-07T15:08:50.818Z,93665.69
2023-11-07T15:11:17.422Z,93672.47
2023-11-07T15:14:00.937Z,93666.38
2023-11-07T15:16:29.305Z,93683.53
2023-11-07T15:18:57.316Z,93674.31
2023-11-07T15:21:24.798Z,93661.22
2023-11-07T15:23:52.009Z,93680.44
2023-11-07T15:26:19.550Z,93689.28
2023-11-07T15:28:46.076Z,93700.97
2023-11-07T15:31:14.269Z,93710.03
2023-11-07T15:33:41.045Z,93715.88
2023-11-07T15:36:10.907Z,93719.06
2023-11-07T15:38:54.788Z,93714.03
2023-11-07T15:41:22.420Z,93712.66
2023-11-07T15:43:50.196Z,93719.41
2023-11-07T15:46:17.666Z,93711.06
2023-11-07T15:48:44.159Z,93714.84
2023-11-07T15:51:11.701Z,93722.53
2023-11-07T15:53:43.572Z,93717.06
2023-11-07T15:56:17.898Z,93718.28
2023-11-07T15:58:50.369Z,93721.53
2023-11-07T16:01:16.735Z,93725.31
2023-11-07T16:03:44.431Z,93733.72
2023-11-07T16:06:16.892Z,93736.94
2023-11-07T16:08:43.513Z,93747.16
2023-11-07T16:11:11.046Z,93752.72
2023-11-07T16:13:38.729Z,93750.84
2023-11-07T16:16:09.886Z,93754.34
2023-11-07T16:18:45.623Z,93752.34
2023-11-07T16:21:17.362Z,93760.63
2023-11-07T16:23:47.736Z,93762.41
2023-11-07T16:26:14.209Z,93762.31
2023-11-07T16:28:44.257Z,93768.31
2023-11-07T16:31:11.115Z,93770.00
2023-11-07T16:33:37.709Z,93782.81
2023-11-07T16:36:04.728Z,93770.31
2023-11-07T16:38:31.330Z,93775.28
2023-11-07T16:40:57.948Z,93779.84
2023-11-07T16:43:25.438Z,93776.00
2023-11-07T16:45:54.010Z,93779.94
2023-11-07T16:48:23.402Z,93777.72
2023-11-07T16:50:49.848Z,93781.13
2023-11-07T16:53:28.568Z,93784.69
2023-11-07T16:55:57.954Z,93786.31
2023-11-07T16:58:27.439Z,93788.50
2023-11-07T17:00:54.841Z,93790.91
2023-11-07T17:03:32.458Z,93787.69
2023-11-07T17:05:59.094Z,93803.34
2023-11-07T17:08:31.849Z,93803.72
2023-11-07T17:11:11.800Z,93805.94
2023-11-07T17:13:38.278Z,93813.31
2023-11-07T17:16:04.920Z,93810.66
2023-11-07T17:18:32.766Z,93815.50
2023-11-07T17:20:59.291Z,93812.81
2023-11-07T17:23:26.170Z,93816.47
2023-11-07T17:25:53.008Z,93816.88
2023-11-07T17:28:19.628Z,93821.94
2023-11-07T17:30:46.580Z,93822.88
2023-11-07T17:33:13.050Z,93826.09
2023-11-07T17:35:43.017Z,93823.75
2023-11-07T17:38:10.753Z,93832.22
2023-11-07T17:40:37.363Z,93830.59
2023-11-07T17:43:04.125Z,93827.47
2023-11-07T17:45:30.722Z,93834.84
2023-11-07T17:47:57.553Z,93840.94
2023-11-07T17:50:24.159Z,93838.53
2023-11-07T17:52:50.641Z,93841.66
2023-11-07T17:55:19.675Z,93840.28
2023-11-07T17:57:46.297Z,93826.63
2023-11-07T18:00:13.271Z,93838.09
2023-11-07T18:02:41.111Z,93838.66
2023-11-07T18:05:07.777Z,93841.09
2023-11-07T18:07:34.533Z,93846.84
2023-11-07T18:10:01.932Z,93757.09
2023-11-07T18:12:28.360Z,93839.69
2023-11-07T18:14:55.297Z,93844.19
2023-11-07T18:17:21.719Z,93845.22
2023-11-07T18:19:49.261Z,93850.06
2023-11-07T18:22:16.024Z,93862.72
2023-11-07T18:24:42.490Z,93855.28
2023-11-07T18:27:08.959Z,93865.97
2023-11-07T18:29:37.545Z,93763.94
2023-11-07T18:32:07.952Z,93864.75
2023-11-07T18:34:34.695Z,93864.75
2023-11-07T18:37:02.955Z,93858.69
2023-11-07T18:39:34.570Z,93866.84
2023-11-07T18:42:01.159Z,93865.63
2023-11-07T18:44:35.450Z,93868.44
2023-11-07T18:47:03.089Z,93872.25
2023-11-07T18:49:29.608Z,93879.50
2023-11-07T18:51:56.384Z,93877.69
2023-11-07T18:54:22.799Z,93876.38
2023-11-07T18:56:49.364Z,93869.34
2023-11-07T18:59:27.754Z,93889.66
2023-11-07T19:02:00.601Z,93886.94
2023-11-07T19:04:27.053Z,93884.63
2023-11-07T19:06:53.402Z,93886.59
2023-11-07T19:09:20.775Z,93894.25
2023-11-07T19:11:47.177Z,93797.47
2023-11-07T19:14:14.262Z,93902.56
2023-11-07T19:16:41.663Z,93904.91
2023-11-07T19:19:08.195Z,93917.41
2023-11-07T19:21:34.611Z,93919.03
2023-11-07T19:24:01.151Z,93921.63
2023-11-07T19:26:27.600Z,93927.56
2023-11-07T19:28:55.258Z,93927.22
2023-11-07T19:31:22.310Z,93942.63
2023-11-07T19:33:50.898Z,93939.94
2023-11-07T19:36:18.818Z,93941.47
2023-11-07T19:38:46.058Z,93938.81
2023-11-07T19:41:13.496Z,93941.13
2023-11-07T19:43:43.099Z,93951.16
2023-11-07T19:46:10.694Z,93950.91
2023-11-07T19:48:44.352Z,93960.31
2023-11-07T19:51:11.962Z,93956.91
2023-11-07T19:53:38.377Z,93958.81
2023-11-07T19:56:05.518Z,93959.63
2023-11-07T19:58:32.977Z,93958.75
2023-11-07T20:00:59.316Z,93958.88
2023-11-07T20:03:29.403Z,93956.41
2023-11-07T20:05:56.899Z,93960.63
2023-11-07T20:08:29.563Z,93972.09
2023-11-07T20:10:59.599Z,93969.19
2023-11-07T20:13:26.023Z,93968.50
2023-11-07T20:15:54.547Z,93972.44
2023-11-07T20:18:21.212Z,93968.16
2023-11-07T20:20:47.738Z,93978.88
2023-11-07T20:23:14.185Z,93980.84
2023-11-07T20:25:42.376Z,93980.19
2023-11-07T20:28:08.785Z,93978.22
2023-11-07T20:30:35.830Z,93981.72
2023-11-07T20:33:07.142Z,93979.50
2023-11-07T20:35:40.250Z,93970.38
2023-11-07T20:38:08.683Z,93973.72
2023-11-07T20:40:37.686Z,93979.41
2023-11-07T20:43:05.323Z,93869.38
2023-11-07T20:45:35.476Z,93988.19
2023-11-07T20:48:02.550Z,93996.34
2023-11-07T20:50:30.110Z,93993.44
2023-11-07T20:52:56.662Z,93978.84
2023-11-07T20:55:23.535Z,93984.94
2023-11-07T20:57:55.379Z,93988.44
2023-11-07T21:00:28.546Z,93991.16
2023-11-07T21:02:57.123Z,93988.84
2023-11-07T21:05:25.645Z,93997.59
2023-11-07T21:07:53.246Z,93992.50
2023-11-07T21:10:19.669Z,94005.81
2023-11-07T21:12:46.042Z,94002.22
2023-11-07T21:15:13.279Z,93998.97
2023-11-07T21:17:41.586Z,93996.75
2023-11-07T21:20:11.750Z,93995.47
2023-11-07T21:22:41.165Z,93992.97
2023-11-07T21:25:08.029Z,93996.34
2023-11-07T21:27:38.556Z,93998.34
2023-11-07T21:30:09.272Z,93999.22
2023-11-07T21:32:35.958Z,93991.47
2023-11-07T21:35:10.802Z,94001.19
2023-11-07T21:37:38.511Z,93997.03
2023-11-07T21:40:05.556Z,93998.34
2023-11-07T21:42:31.986Z,94006.78
2023-11-07T21:44:58.452Z,93999.00
2023-11-07T21:47:25.486Z,94006.44
2023-11-07T21:49:51.804Z,94004.56
2023-11-07T21:52:18.324Z,94008.75
2023-11-07T21:54:44.723Z,94012.31
2023-11-07T21:57:12.242Z,94014.25
2023-11-07T21:59:38.885Z,94020.38
2023-11-07T22:02:05.359Z,94010.00
2023-11-07T22:04:32.961Z,94013.91
2023-11-07T22:06:59.401Z,94017.09
2023-11-07T22:09:25.805Z,94018.31
2023-11-07T22:11:52.388Z,94019.06
2023-11-07T22:14:20.397Z,94021.34
2023-11-07T22:16:46.803Z,94018.72
2023-11-07T22:19:13.276Z,94025.94
2023-11-07T22:21:39.856Z,94023.66
2023-11-07T22:24:06.709Z,94025.09
2023-11-07T22:26:33.110Z,94022.69
2023-11-07T22:29:01.445Z,94022.97
2023-11-07T22:31:28.077Z,94026.25
2023-11-07T22:33:54.550Z,94035.28
2023-11-07T22:36:21.399Z,94032.72
2023-11-07T22:38:49.282Z,94036.97
2023-11-07T22:41:15.709Z,94042.50
2023-11-07T22:43:42.131Z,94036.16
2023-11-07T22:46:08.635Z,94035.69
2023-11-07T22:48:35.433Z,94039.59
2023-11-07T22:51:02.608Z,94037.97
2023-11-07T22:53:29.330Z,94041.88
2023-11-07T22:55:57.535Z,94040.94
2023-11-07T22:58:24.777Z,94032.66
2023-11-07T23:00:51.297Z,94034.78
2023-11-07T23:03:17.820Z,94042.88
2023-11-07T23:05:49.494Z,94043.81
2023-11-07T23:08:17.261Z,94036.03
2023-11-07T23:10:44.016Z,94043.50
2023-11-07T23:13:10.439Z,94037.69
2023-11-07T23:15:40.060Z,94034.44
2023-11-07T23:18:08.226Z,94034.75
2023-11-07T23:20:36.500Z,94035.25
2023-11-07T23:23:03.213Z,94033.78
2023-11-07T23:25:29.565Z,94032.84
2023-11-07T23:27:55.904Z,94021.81
2023-11-07T23:30:22.426Z,94032.19
2023-11-07T23:32:48.982Z,94040.63
2023-11-07T23:35:15.447Z,94041.59
2023-11-07T23:37:42.046Z,94049.19
2023-11-07T23:40:11.829Z,94042.88
2023-11-07T23:42:42.636Z,94044.19
2023-11-07T23:45:09.566Z,94040.97
2023-11-07T23:47:36.826Z,94045.66
2023-11-07T23:50:04.221Z,94040.16
2023-11-07T23:52:30.609Z,94038.06
2023-11-07T23:54:57.886Z,94040.63
2023-11-07T23:57:24.764Z,94043.56
2023-11-07T23:59:53.956Z,94044.84
